Time;durP1;ratioP1;P1;durP2;ratioP2;P2;SDS_P1;SDS_P2;PMS_P1;PMS_P2;Temp;Humidity;BMP_temperature;BMP_pressure;BME280_temperature;BME280_humidity;BME280_pressure;Samples;Min_cycle;Max_cycle;Signal;HPM_P1;HPM_P2
2022/09/19 00:01:32;;;;;;;25.40;6.57;;;;;;;6.42;100.00;101649.13;5083951;28;20081;-63
2022/09/19 00:04:01;;;;;;;26.92;6.50;;;;;;;6.42;100.00;101646.50;5087591;28;20031;-64
2022/09/19 00:06:28;;;;;;;25.80;6.20;;;;;;;6.38;100.00;101639.38;5084145;28;20085;-63
2022/09/19 00:08:55;;;;;;;24.70;6.03;;;;;;;6.36;100.00;101646.31;5086606;28;20028;-63
2022/09/19 00:11:21;;;;;;;23.02;5.90;;;;;;;6.40;100.00;101642.94;5084985;28;20494;-63
2022/09/19 00:13:49;;;;;;;23.83;6.30;;;;;;;6.35;100.00;101648.03;5085563;28;20073;-63
2022/09/19 00:16:26;;;;;;;23.10;5.70;;;;;;;6.34;100.00;101648.00;5085357;28;20038;-63
2022/09/19 00:18:53;;;;;;;23.27;5.47;;;;;;;6.40;100.00;101645.56;5086108;28;20032;-64
2022/09/19 00:21:39;;;;;;;21.70;5.72;;;;;;;6.36;100.00;101646.31;5084861;28;20516;-63
2022/09/19 00:26:58;;;;;;;24.00;5.55;;;;;;;6.38;100.00;101649.91;5083093;28;20040;-64
2022/09/19 00:29:24;;;;;;;22.27;5.45;;;;;;;6.32;100.00;101649.66;5086145;28;20021;-64
2022/09/19 00:31:50;;;;;;;23.42;5.53;;;;;;;6.21;100.00;101649.28;5084604;28;20107;-63
2022/09/19 00:34:17;;;;;;;24.75;5.70;;;;;;;6.25;100.00;101649.44;5085114;28;20053;-63
2022/09/19 00:36:43;;;;;;;22.58;5.22;;;;;;;6.28;100.00;101660.06;5085704;28;20053;-63
2022/09/19 00:39:11;;;;;;;22.17;5.50;;;;;;;6.28;100.00;101651.31;5084041;28;20032;-66
2022/09/19 00:41:37;;;;;;;21.50;5.25;;;;;;;6.34;100.00;101661.13;5086434;28;20430;-63
2022/09/19 00:44:02;;;;;;;22.98;5.03;;;;;;;6.39;100.00;101651.66;5081943;28;20032;-64
2022/09/19 00:46:31;;;;;;;24.60;5.43;;;;;;;6.44;100.00;101658.84;5086494;28;20089;-64
2022/09/19 00:49:07;;;;;;;22.92;5.05;;;;;;;6.41;100.00;101663.13;5083619;28;20116;-64
2022/09/19 00:51:38;;;;;;;24.23;4.75;;;;;;;6.49;100.00;101655.50;5086540;28;20129;-63
2022/09/19 00:54:11;;;;;;;23.85;4.78;;;;;;;6.51;100.00;101656.44;5083114;28;20031;-64
2022/09/19 00:56:40;;;;;;;22.10;4.72;;;;;;;6.46;100.00;101656.28;5083316;28;20036;-64
2022/09/19 00:59:05;;;;;;;23.30;4.53;;;;;;;6.53;100.00;101660.91;5086638;28;20020;-64
2022/09/19 01:01:31;;;;;;;24.50;4.53;;;;;;;6.52;100.00;101653.84;5082727;28;20062;-63
2022/09/19 01:03:56;;;;;;;20.42;4.18;;;;;;;6.50;100.00;101652.91;5085101;28;20065;-64
2022/09/19 01:06:59;;;;;;;22.40;4.55;;;;;;;6.54;100.00;101652.19;5083797;28;20085;-68
2022/09/19 01:09:36;;;;;;;22.90;4.13;;;;;;;6.60;100.00;101655.03;5084071;28;20036;-66
2022/09/19 01:12:20;;;;;;;21.20;4.32;;;;;;;6.57;100.00;101656.66;5082882;28;20037;-67
2022/09/19 01:15:13;;;;;;;23.08;4.40;;;;;;;6.55;100.00;101653.97;5084218;28;20056;-68
2022/09/19 01:17:46;;;;;;;22.65;4.80;;;;;;;6.49;100.00;101664.25;5083422;28;20028;-65
2022/09/19 01:20:36;;;;;;;22.60;4.80;;;;;;;6.48;100.00;101673.00;5084945;28;20020;-64
2022/09/19 01:23:26;;;;;;;23.38;4.90;;;;;;;6.34;100.00;101674.25;5082390;28;20491;-68
2022/09/19 01:26:10;;;;;;;23.00;4.70;;;;;;;6.33;100.00;101677.72;5085044;28;20123;-66
2022/09/19 01:28:57;;;;;;;22.55;4.65;;;;;;;6.33;100.00;101685.59;5082573;28;20552;-68
2022/09/19 01:31:29;;;;;;;23.20;4.88;;;;;;;6.35;100.00;101681.28;5082978;28;20036;-65
2022/09/19 01:34:02;;;;;;;23.50;5.00;;;;;;;6.35;100.00;101687.44;5084921;28;20083;-64
2022/09/19 01:36:32;;;;;;;21.50;4.50;;;;;;;6.38;100.00;101686.66;5082255;28;20067;-65
2022/09/19 01:39:01;;;;;;;22.73;4.68;;;;;;;6.36;100.00;101678.69;5085180;28;20466;-67
2022/09/19 01:41:27;;;;;;;24.30;4.65;;;;;;;6.35;100.00;101686.53;5082408;28;20032;-67
2022/09/19 01:43:53;;;;;;;21.83;4.18;;;;;;;6.35;100.00;101683.91;5084947;28;20082;-66
2022/09/19 01:46:52;;;;;;;21.70;4.25;;;;;;;6.34;100.00;101687.38;5081957;28;20397;-67
2022/09/19 01:49:32;;;;;;;24.63;4.90;;;;;;;6.30;100.00;101682.88;5019886;28;20034;-67
2022/09/19 01:52:12;;;;;;;23.40;4.80;;;;;;;6.27;100.00;101686.25;5023946;28;20033;-68
2022/09/19 01:54:46;;;;;;;23.27;4.97;;;;;;;6.28;100.00;101688.06;5022899;28;20409;-67
2022/09/19 01:57:18;;;;;;;23.45;5.20;;;;;;;6.25;100.00;101693.22;5022056;28;20025;-67
2022/09/19 01:59:50;;;;;;;22.45;4.95;;;;;;;6.22;100.00;101691.38;5021150;28;20062;-67
2022/09/19 02:02:34;;;;;;;22.80;5.13;;;;;;;6.23;100.00;101692.25;5021744;28;20570;-67
2022/09/19 02:05:13;;;;;;;23.38;5.10;;;;;;;6.20;100.00;101687.78;5023006;28;20530;-65
2022/09/19 02:07:48;;;;;;;22.90;5.03;;;;;;;6.18;100.00;101689.47;5022968;28;20133;-63
2022/09/19 02:10:22;;;;;;;24.73;5.30;;;;;;;6.19;100.00;101693.88;5021681;28;20492;-63
2022/09/19 02:12:52;;;;;;;23.23;5.30;;;;;;;6.16;100.00;101690.25;5021178;28;20045;-66
2022/09/19 02:15:23;;;;;;;23.58;5.22;;;;;;;6.11;100.00;101688.34;5021248;28;20029;-65
2022/09/19 02:17:55;;;;;;;22.88;5.20;;;;;;;6.05;100.00;101682.88;5021354;28;20033;-64
2022/09/19 02:20:31;;;;;;;22.48;5.50;;;;;;;6.02;100.00;101692.38;5020462;28;20041;-65
2022/09/19 02:23:04;;;;;;;23.75;4.93;;;;;;;6.05;100.00;101693.38;5022230;28;20053;-64
2022/09/19 02:25:33;;;;;;;23.70;5.30;;;;;;;6.08;100.00;101695.22;5033436;28;20036;-64
2022/09/19 02:28:05;;;;;;;25.08;5.38;;;;;;;6.08;100.00;101700.47;5084596;28;20035;-64
2022/09/19 02:30:31;;;;;;;25.25;5.63;;;;;;;6.08;100.00;101703.97;5081215;28;20027;-63
2022/09/19 02:32:57;;;;;;;25.83;5.50;;;;;;;6.11;100.00;101705.81;5084181;28;20032;-64
2022/09/19 02:35:36;;;;;;;26.58;5.90;;;;;;;6.16;100.00;101699.03;5082197;28;20089;-64
2022/09/19 02:38:14;;;;;;;24.40;5.82;;;;;;;6.06;100.00;101715.28;5081323;28;20025;-65
2022/09/19 02:40:56;;;;;;;23.88;5.55;;;;;;;6.00;100.00;101705.44;5081606;28;20025;-64
2022/09/19 02:43:24;;;;;;;24.80;5.22;;;;;;;6.03;100.00;101709.91;5082226;28;20077;-65
2022/09/19 02:46:05;;;;;;;22.30;5.63;;;;;;;6.10;100.00;101719.78;5082862;28;20074;-65
2022/09/19 02:48:48;;;;;;;27.45;5.90;;;;;;;6.09;100.00;101718.03;5081051;28;20052;-64
2022/09/19 02:51:20;;;;;;;26.45;6.05;;;;;;;6.08;100.00;101718.84;5083858;28;20030;-64
2022/09/19 02:54:02;;;;;;;25.45;5.53;;;;;;;6.07;100.00;101712.72;5082758;28;20074;-63
2022/09/19 02:56:33;;;;;;;24.45;5.47;;;;;;;6.11;100.00;101713.69;5081300;28;20459;-64
2022/09/19 02:59:04;;;;;;;25.27;5.47;;;;;;;6.15;100.00;101715.59;5084289;28;20032;-64
2022/09/19 03:01:33;;;;;;;25.67;5.63;;;;;;;6.11;100.00;101711.06;5080860;28;20495;-67
2022/09/19 03:04:12;;;;;;;24.77;5.57;;;;;;;6.13;100.00;101716.38;5083817;28;20078;-66
2022/09/19 03:07:06;;;;;;;24.52;5.40;;;;;;;6.16;100.00;101714.78;5081341;28;20032;-64
2022/09/19 03:09:32;;;;;;;24.08;4.97;;;;;;;6.14;100.00;101713.81;5080566;28;20120;-66
2022/09/19 03:12:18;;;;;;;24.33;5.05;;;;;;;6.06;100.00;101713.53;5084039;28;20055;-65
2022/09/19 03:14:47;;;;;;;24.08;5.28;;;;;;;6.04;100.00;101709.06;5081861;28;20038;-65
2022/09/19 03:17:16;;;;;;;26.67;5.50;;;;;;;5.96;100.00;101718.38;5083326;28;20085;-63
2022/09/19 03:19:46;;;;;;;23.95;5.45;;;;;;;5.90;100.00;101712.03;5081306;28;20021;-66
2022/09/19 03:22:12;;;;;;;25.17;5.60;;;;;;;5.87;100.00;101711.94;5083412;28;20034;-66
2022/09/19 03:24:38;;;;;;;24.15;5.50;;;;;;;5.91;100.00;101721.72;5080784;28;20099;-65
2022/09/19 03:27:04;;;;;;;24.40;5.35;;;;;;;5.95;100.00;101720.09;5087087;28;20446;-63
2022/09/19 03:29:30;;;;;;;22.25;5.20;;;;;;;5.99;100.00;101721.16;5084821;28;20024;-65
2022/09/19 03:31:55;;;;;;;24.50;5.43;;;;;;;6.00;100.00;101718.56;5087152;28;20065;-68
2022/09/19 03:34:21;;;;;;;22.35;5.10;;;;;;;6.04;100.00;101716.94;5085710;28;20039;-64
2022/09/19 03:36:47;;;;;;;22.55;5.60;;;;;;;6.08;100.00;101721.47;5085946;28;20115;-64
2022/09/19 03:39:13;;;;;;;25.92;5.60;;;;;;;6.15;100.00;101718.22;5086886;28;20016;-67
2022/09/19 03:41:38;;;;;;;25.60;5.65;;;;;;;6.23;100.00;101724.66;5084745;28;20036;-65
2022/09/19 03:44:04;;;;;;;22.20;5.22;;;;;;;6.26;100.00;101719.53;5087861;28;20062;-65
2022/09/19 03:46:30;;;;;;;23.13;5.80;;;;;;;6.31;100.00;101719.69;5084436;28;20020;-63
2022/09/19 03:48:56;;;;;;;23.10;5.97;;;;;;;6.31;100.00;101717.06;5087180;28;20032;-64
2022/09/19 03:51:23;;;;;;;22.63;5.70;;;;;;;6.30;100.00;101719.63;5085573;28;20032;-67
2022/09/19 03:53:48;;;;;;;22.45;5.35;;;;;;;6.31;100.00;101714.44;5085753;28;20055;-65
2022/09/19 03:56:14;;;;;;;24.23;5.45;;;;;;;6.28;100.00;101717.84;5086578;28;20074;-64
2022/09/19 03:58:41;;;;;;;23.30;5.40;;;;;;;6.31;100.00;101717.06;5083466;28;20138;-64
2022/09/19 04:01:07;;;;;;;24.45;5.50;;;;;;;6.30;100.00;101720.50;5087646;28;20020;-64
2022/09/19 04:03:37;;;;;;;24.38;5.63;;;;;;;6.28;100.00;101717.84;5084208;28;20063;-67
2022/09/19 04:06:04;;;;;;;25.05;5.85;;;;;;;6.26;100.00;101723.84;5084152;28;20108;-64
2022/09/19 04:08:29;;;;;;;23.17;5.65;;;;;;;6.21;100.00;101726.31;5087028;28;20051;-65
2022/09/19 04:10:55;;;;;;;24.60;5.43;;;;;;;6.21;100.00;101728.06;5084905;28;20031;-66
2022/09/19 04:13:21;;;;;;;24.20;5.38;;;;;;;6.21;100.00;101733.31;5085789;28;20025;-64
2022/09/19 04:15:47;;;;;;;20.95;5.28;;;;;;;6.18;100.00;101730.59;5085770;28;20043;-65
2022/09/19 04:18:12;;;;;;;23.58;5.50;;;;;;;6.15;100.00;101736.63;5084750;28;20017;-63
2022/09/19 04:20:39;;;;;;;22.42;5.63;;;;;;;6.14;100.00;101737.44;5086958;28;20466;-66
2022/09/19 04:23:05;;;;;;;25.13;6.03;;;;;;;6.11;100.00;101746.09;5083866;28;20024;-64
2022/09/19 04:25:34;;;;;;;23.65;5.68;;;;;;;6.10;100.00;101746.03;5087117;28;20024;-66
2022/09/19 04:28:02;;;;;;;21.77;5.82;;;;;;;6.06;100.00;101750.28;5084082;28;20063;-64
2022/09/19 04:30:27;;;;;;;23.40;5.78;;;;;;;6.15;100.00;101743.59;5086452;28;20028;-65
2022/09/19 04:32:52;;;;;;;23.00;5.80;;;;;;;6.22;100.00;101746.50;5084368;28;20032;-63
2022/09/19 04:35:19;;;;;;;24.15;5.80;;;;;;;6.24;100.00;101751.81;5085054;28;20391;-64
2022/09/19 04:37:44;;;;;;;24.05;5.85;;;;;;;6.21;100.00;101744.72;5084553;28;20031;-65
2022/09/19 04:40:10;;;;;;;23.50;5.78;;;;;;;6.24;100.00;101750.06;5083795;28;20025;-64
2022/09/19 04:42:35;;;;;;;24.95;5.90;;;;;;;6.33;100.00;101754.75;5086597;28;20020;-63
2022/09/19 04:45:01;;;;;;;24.73;5.72;;;;;;;6.38;100.00;101752.31;5083092;28;20077;-64
2022/09/19 04:47:32;;;;;;;24.10;5.85;;;;;;;6.40;100.00;101742.75;5086433;28;20062;-65
2022/09/19 04:49:58;;;;;;;23.15;5.70;;;;;;;6.38;100.00;101757.56;5083645;28;20494;-65
2022/09/19 04:52:25;;;;;;;20.70;5.80;;;;;;;6.37;100.00;101761.91;5085624;28;20036;-64
2022/09/19 04:54:52;;;;;;;24.52;6.03;;;;;;;6.37;100.00;101766.28;5083223;28;20031;-64
2022/09/19 04:57:17;;;;;;;24.05;6.00;;;;;;;6.38;100.00;101761.09;5084439;28;20463;-65
2022/09/19 04:59:42;;;;;;;24.23;6.25;;;;;;;6.44;100.00;101763.94;5085787;28;20065;-68
2022/09/19 05:02:08;;;;;;;24.95;6.38;;;;;;;6.53;100.00;101765.09;5083122;28;20025;-68
2022/09/19 05:04:35;;;;;;;28.08;6.10;;;;;;;6.58;100.00;101769.69;5086436;28;20111;-67
2022/09/19 05:07:02;;;;;;;24.98;6.22;;;;;;;6.67;100.00;101768.19;5082848;28;20430;-67
2022/09/19 05:09:27;;;;;;;25.35;6.40;;;;;;;6.75;100.00;101767.63;5085667;28;20031;-66
2022/09/19 05:11:56;;;;;;;23.60;6.57;;;;;;;6.80;100.00;101768.69;5083843;28;20028;-67
2022/09/19 05:14:29;;;;;;;24.15;6.25;;;;;;;6.85;100.00;101767.97;5084912;28;20123;-68
2022/09/19 05:16:55;;;;;;;25.02;6.10;;;;;;;6.89;100.00;101770.75;5083525;28;20103;-68
2022/09/19 05:19:22;;;;;;;23.63;6.35;;;;;;;6.91;100.00;101769.03;5084472;28;20175;-67
2022/09/19 05:21:49;;;;;;;25.90;6.20;;;;;;;6.94;100.00;101771.78;5084656;28;20024;-67
2022/09/19 05:24:15;;;;;;;23.17;5.93;;;;;;;6.98;100.00;101776.31;5083481;28;20074;-67
2022/09/19 05:26:40;;;;;;;24.55;5.85;;;;;;;7.06;100.00;101778.31;5085599;28;20415;-68
2022/09/19 05:29:06;;;;;;;26.60;6.43;;;;;;;7.09;100.00;101775.78;5082224;28;20107;-66
2022/09/19 05:31:31;;;;;;;24.88;6.88;;;;;;;7.13;100.00;101781.19;5086422;28;20463;-67
2022/09/19 05:33:57;;;;;;;24.15;5.88;;;;;;;7.18;100.00;101780.44;5083449;28;20051;-65
2022/09/19 05:36:22;;;;;;;23.00;5.90;;;;;;;7.19;100.00;101790.13;5085407;28;20032;-65
2022/09/19 05:38:48;;;;;;;25.58;6.07;;;;;;;7.17;100.00;101782.19;5086161;28;20032;-64
2022/09/19 05:41:14;;;;;;;23.90;6.05;;;;;;;7.16;100.00;101785.66;5087705;28;20073;-64
2022/09/19 05:43:39;;;;;;;24.10;6.25;;;;;;;7.17;100.00;101786.56;5079249;28;20020;-65
2022/09/19 05:46:04;;;;;;;24.45;5.75;;;;;;;7.13;100.00;101788.19;5085462;28;20063;-66
2022/09/19 05:48:30;;;;;;;24.73;6.10;;;;;;;7.14;100.00;101796.13;5086575;28;20480;-66
2022/09/19 05:50:55;;;;;;;24.50;6.28;;;;;;;7.13;100.00;101799.59;5086870;28;20072;-66
2022/09/19 05:56:07;;;;;;;25.75;5.85;;;;;;;7.08;100.00;101802.94;5082107;28;20464;-64
2022/09/19 05:58:35;;;;;;;23.27;5.68;;;;;;;7.09;100.00;101794.19;5078232;28;20055;-66
2022/09/19 06:01:06;;;;;;;26.88;6.65;;;;;;;7.07;100.00;101801.13;5084315;28;20374;-67
2022/09/19 06:03:33;;;;;;;23.98;5.88;;;;;;;7.08;100.00;101802.94;5084339;28;20048;-65
2022/09/19 06:05:58;;;;;;;23.05;6.00;;;;;;;7.11;100.00;101797.78;5084323;28;20028;-66
2022/09/19 06:08:24;;;;;;;25.15;6.35;;;;;;;7.20;100.00;101798.06;5083934;28;20352;-65
2022/09/19 06:10:50;;;;;;;25.33;6.60;;;;;;;7.31;100.00;101801.94;5086627;28;20425;-65
2022/09/19 06:13:21;;;;;;;25.08;6.20;;;;;;;7.44;100.00;101802.34;5086553;28;20027;-64
2022/09/19 06:15:47;;;;;;;24.92;6.10;;;;;;;7.60;100.00;101811.63;5086988;28;20488;-64
2022/09/19 06:18:12;;;;;;;26.13;5.75;;;;;;;7.76;100.00;101811.28;5083108;28;20107;-65
2022/09/19 06:20:40;;;;;;;22.58;5.50;;;;;;;7.98;100.00;101806.66;5086145;28;20474;-65
2022/09/19 06:23:07;;;;;;;23.45;5.47;;;;;;;8.20;100.00;101805.56;5087252;28;20017;-64
2022/09/19 06:25:34;;;;;;;21.63;4.90;;;;;;;8.49;100.00;101808.16;5088893;28;20028;-65
2022/09/19 06:28:04;;;;;;;21.40;4.53;;;;;;;8.61;100.00;101811.16;5085837;28;20115;-66
2022/09/19 06:30:30;;;;;;;23.30;4.60;;;;;;;8.68;100.00;101817.50;5088082;28;20069;-65
2022/09/19 06:32:56;;;;;;;20.45;3.78;;;;;;;8.70;100.00;101816.69;5083890;28;20405;-65
2022/09/19 06:35:23;;;;;;;21.98;4.43;;;;;;;8.70;100.00;101828.97;5087236;28;20020;-64
2022/09/19 06:37:48;;;;;;;22.08;4.03;;;;;;;8.64;100.00;101829.69;5084662;28;20440;-64
2022/09/19 06:40:18;;;;;;;22.08;3.92;;;;;;;8.61;100.00;101832.25;5084026;28;20028;-65
2022/09/19 06:42:44;;;;;;;20.23;3.90;;;;;;;8.70;100.00;101828.97;5085791;28;20016;-64
2022/09/19 06:45:09;;;;;;;20.98;3.60;;;;;;;8.83;100.00;101827.56;5083668;28;20493;-65
2022/09/19 06:47:35;;;;;;;19.33;3.90;;;;;;;8.96;100.00;101834.97;5084537;28;20052;-65
2022/09/19 06:50:01;;;;;;;23.05;3.90;;;;;;;9.04;100.00;101832.50;5076105;28;20029;-65
2022/09/19 06:52:27;;;;;;;20.52;3.92;;;;;;;9.13;100.00;101834.50;5086035;28;20173;-67
2022/09/19 06:54:53;;;;;;;20.63;3.72;;;;;;;9.18;100.00;101840.81;5085027;28;20032;-66
2022/09/19 06:57:19;;;;;;;20.02;3.50;;;;;;;9.23;100.00;101841.78;5083120;28;20026;-64
2022/09/19 06:59:44;;;;;;;21.15;3.47;;;;;;;9.25;100.00;101842.75;5082324;28;20027;-66
2022/09/19 07:02:10;;;;;;;19.45;3.70;;;;;;;9.30;100.00;101850.78;5086614;28;20020;-65
2022/09/19 07:04:36;;;;;;;22.08;3.63;;;;;;;9.38;100.00;101843.97;5082170;28;20437;-69
2022/09/19 07:07:02;;;;;;;21.20;3.60;;;;;;;9.50;100.00;101860.09;5086365;28;20162;-69
2022/09/19 07:09:27;;;;;;;20.58;3.70;;;;;;;9.61;100.00;101857.72;5085565;28;20459;-70
2022/09/19 07:11:56;;;;;;;20.58;3.58;;;;;;;9.60;100.00;101858.56;5084190;28;20463;-71
2022/09/19 07:14:22;;;;;;;20.48;3.55;;;;;;;9.62;100.00;101861.25;5083254;28;20032;-68
2022/09/19 07:16:48;;;;;;;22.67;3.90;;;;;;;9.73;100.00;101863.28;5083947;28;20032;-70
2022/09/19 07:19:13;;;;;;;18.88;3.72;;;;;;;9.88;100.00;101877.72;5081871;28;20023;-69
2022/09/19 07:21:38;;;;;;;18.92;3.50;;;;;;;10.02;100.00;101876.28;5084022;28;20025;-69
2022/09/19 07:24:06;;;;;;;20.58;3.60;;;;;;;10.16;100.00;101875.72;5086690;28;20463;-69
2022/09/19 07:26:31;;;;;;;20.98;3.75;;;;;;;10.26;100.00;101882.97;5080650;28;20028;-72
2022/09/19 07:28:56;;;;;;;18.15;3.33;;;;;;;10.38;100.00;101885.94;5083343;28;20077;-70
2022/09/19 07:31:22;;;;;;;19.67;3.60;;;;;;;10.52;100.00;101887.97;5086798;28;20028;-71
2022/09/19 07:33:48;;;;;;;20.13;3.47;;;;;;;10.60;100.00;101889.03;5085359;28;20048;-69
2022/09/19 07:36:13;;;;;;;19.65;3.28;;;;;;;10.64;100.00;101893.50;5080748;28;20532;-70
2022/09/19 07:38:39;;;;;;;19.92;3.55;;;;;;;10.69;100.00;101894.50;5084231;28;20029;-71
2022/09/19 07:41:05;;;;;;;21.50;3.40;;;;;;;10.77;100.00;101894.66;5082968;28;20501;-69
2022/09/19 07:43:30;;;;;;;19.83;3.83;;;;;;;10.94;100.00;101892.38;5086174;28;20028;-70
2022/09/19 07:45:55;;;;;;;19.63;3.30;;;;;;;11.05;100.00;101893.44;5086015;28;20055;-69
2022/09/19 07:48:21;;;;;;;19.42;3.20;;;;;;;11.12;100.00;101900.63;5082963;28;20052;-69
2022/09/19 07:50:50;;;;;;;19.95;3.53;;;;;;;11.24;100.00;101893.78;5088687;28;20036;-70
2022/09/19 07:53:21;;;;;;;18.58;3.60;;;;;;;11.30;100.00;101899.19;5085918;28;20055;-69
2022/09/19 07:55:55;;;;;;;19.92;3.40;;;;;;;11.38;100.00;101905.53;5085157;28;20039;-70
2022/09/19 07:58:23;;;;;;;19.52;3.40;;;;;;;11.43;100.00;101898.56;5080521;28;20023;-68
2022/09/19 08:00:49;;;;;;;22.27;3.60;;;;;;;11.46;100.00;101900.34;5086818;28;20371;-70
2022/09/19 08:03:16;;;;;;;21.23;3.40;;;;;;;11.45;100.00;101906.53;5083720;28;20056;-69
2022/09/19 08:05:44;;;;;;;20.83;3.30;;;;;;;11.48;100.00;101907.47;5083865;28;20343;-69
2022/09/19 08:08:11;;;;;;;18.88;3.33;;;;;;;11.56;100.00;101909.34;5084861;28;20030;-70
2022/09/19 08:10:38;;;;;;;19.40;3.40;;;;;;;11.64;100.00;101916.56;5084459;28;20127;-69
2022/09/19 08:13:08;;;;;;;19.05;3.30;;;;;;;11.75;100.00;101915.84;5085043;28;20474;-69
2022/09/19 08:15:34;;;;;;;19.25;3.33;;;;;;;11.90;100.00;101909.91;5077797;28;20511;-71
2022/09/19 08:18:01;;;;;;;19.08;3.83;;;;;;;12.03;100.00;101919.88;5078245;28;20028;-69
2022/09/19 08:20:31;;;;;;;20.02;3.63;;;;;;;12.17;100.00;101921.00;5078088;28;20025;-70
2022/09/19 08:22:58;;;;;;;19.58;3.30;;;;;;;12.40;100.00;101927.50;5087587;28;20024;-69
2022/09/19 08:25:24;;;;;;;20.13;3.15;;;;;;;12.65;100.00;101924.28;5080833;28;20482;-71
2022/09/19 08:27:51;;;;;;;23.33;3.60;;;;;;;12.77;100.00;101931.53;5083672;28;20020;-69
2022/09/19 08:30:20;;;;;;;17.50;3.20;;;;;;;12.97;100.00;101930.84;5087797;28;20024;-67
2022/09/19 08:32:46;;;;;;;21.38;3.47;;;;;;;12.99;100.00;101929.09;5086278;28;20390;-69
2022/09/19 08:35:12;;;;;;;20.95;3.47;;;;;;;12.91;100.00;101939.63;5087964;28;20048;-69
2022/09/19 08:37:37;;;;;;;22.08;3.58;;;;;;;12.84;100.00;101930.72;5085386;28;20042;-68
2022/09/19 08:40:15;;;;;;;20.38;3.40;;;;;;;12.89;100.00;101934.31;5084486;28;20469;-68
2022/09/19 08:42:49;;;;;;;19.15;3.00;;;;;;;12.85;100.00;101937.78;5087223;28;20375;-69
2022/09/19 08:45:27;;;;;;;21.58;3.30;;;;;;;12.91;100.00;101939.63;5087249;28;20060;-69
2022/09/19 08:47:54;;;;;;;19.77;3.40;;;;;;;12.95;100.00;101937.94;5085036;28;20035;-65
2022/09/19 08:50:27;;;;;;;15.80;2.95;;;;;;;13.10;100.00;101939.88;5084258;28;20537;-66
2022/09/19 08:52:57;;;;;;;18.77;2.70;;;;;;;13.68;100.00;101952.88;5085706;28;20031;-66
2022/09/19 08:55:26;;;;;;;19.10;3.15;;;;;;;14.37;100.00;101934.78;5086329;28;20039;-65
2022/09/19 08:58:07;;;;;;;17.20;3.03;;;;;;;14.81;100.00;101947.47;5085412;28;20028;-66
2022/09/19 09:00:39;;;;;;;19.40;3.08;;;;;;;14.92;100.00;101944.81;5084784;28;20482;-66
2022/09/19 09:03:09;;;;;;;16.27;2.75;;;;;;;15.33;100.00;101944.06;5083404;28;20527;-66
2022/09/19 09:05:59;;;;;;;16.45;2.50;;;;;;;15.96;100.00;101937.94;5087098;28;20115;-67
2022/09/19 09:08:54;;;;;;;19.08;2.92;;;;;;;16.83;100.00;101941.25;5087204;28;20016;-67
2022/09/19 09:11:49;;;;;;;15.48;2.40;;;;;;;17.31;100.00;101941.03;5086694;28;20111;-66
2022/09/19 09:14:48;;;;;;;15.55;2.55;;;;;;;17.85;100.00;101943.31;5090969;28;20359;-66
2022/09/19 09:17:28;;;;;;;16.42;2.50;;;;;;;18.17;100.00;101944.81;5082905;28;20037;-67
2022/09/19 09:20:18;;;;;;;16.45;2.53;;;;;;;18.32;100.00;101932.19;5084377;28;20039;-67
2022/09/19 09:22:48;;;;;;;17.50;2.70;;;;;;;18.60;100.00;101944.38;5083216;28;20055;-69
2022/09/19 09:25:22;;;;;;;14.25;2.97;;;;;;;19.05;100.00;101938.50;5086421;28;20055;-65
2022/09/19 09:27:59;;;;;;;17.52;2.50;;;;;;;19.42;100.00;101940.63;5086517;28;20050;-64
2022/09/19 09:30:24;;;;;;;17.88;2.65;;;;;;;19.92;100.00;101934.50;5084793;28;20028;-65
2022/09/19 09:33:13;;;;;;;14.85;2.40;;;;;;;20.28;100.00;101929.38;5089044;28;20436;-65
2022/09/19 09:35:45;;;;;;;17.25;2.53;;;;;;;20.78;100.00;101931.97;5085889;28;20114;-64
2022/09/19 09:38:14;;;;;;;;;;;;;;;21.11;100.00;101929.47;5085394;28;20101;-69
2022/09/19 09:43:45;;;;;;;18.15;2.50;;;;;;;21.50;100.00;101937.53;5086160;28;20043;-68
2022/09/19 09:46:18;;;;;;;16.48;2.53;;;;;;;20.64;100.00;101937.63;5087967;28;20030;-69
2022/09/19 09:48:44;;;;;;;15.23;2.50;;;;;;;20.83;99.19;101936.34;5085766;28;20020;-70
2022/09/19 09:51:26;;;;;;;17.08;2.40;;;;;;;21.41;100.00;101941.34;5081604;28;20467;-69
2022/09/19 09:54:00;;;;;;;15.75;2.50;;;;;;;21.86;91.76;101943.84;5083401;28;20036;-70
2022/09/19 09:56:41;;;;;;;14.82;2.30;;;;;;;21.56;96.81;101943.66;5083382;28;20036;-69
2022/09/19 10:05:42;;;;;;;16.30;2.20;;;;;;;22.87;69.60;101941.13;5011623;28;20053;-66
2022/09/19 10:08:22;;;;;;;15.63;2.40;;;;;;;21.54;68.41;101933.91;5003616;28;20041;-67
2022/09/19 10:10:51;;;;;;;12.93;2.35;;;;;;;19.64;75.61;101942.97;5011328;28;20173;-67
2022/09/19 10:13:27;;;;;;;11.75;2.25;;;;;;;18.69;73.23;101940.69;5011283;28;20093;-67
2022/09/19 10:16:02;;;;;;;10.40;2.10;;;;;;;18.15;76.18;101935.94;5011111;28;20041;-66
2022/09/19 10:18:49;;;;;;;13.18;2.20;;;;;;;18.10;73.43;101944.03;5011134;28;20026;-65
2022/09/19 10:21:14;;;;;;;9.07;2.10;;;;;;;18.78;75.04;101932.53;5004023;28;20042;-66
2022/09/19 10:23:45;;;;;;;17.02;2.22;;;;;;;19.68;71.25;101942.00;5011107;28;20029;-64
2022/09/19 10:26:19;;;;;;;16.20;2.40;;;;;;;19.49;73.51;101941.44;5011064;28;20086;-65
2022/09/19 10:28:52;;;;;;;11.82;2.20;;;;;;;19.17;73.84;101950.81;5010977;28;20061;-65
2022/09/19 10:31:24;;;;;;;14.32;2.30;;;;;;;18.52;75.81;101946.25;5011006;28;20034;-67
2022/09/19 10:33:50;;;;;;;14.95;2.17;;;;;;;18.14;76.79;101944.00;5010945;28;20539;-64
2022/09/19 10:36:22;;;;;;;13.63;2.30;;;;;;;18.04;80.11;101943.19;5010021;28;20045;-65
2022/09/19 10:39:00;;;;;;;13.55;2.13;;;;;;;18.22;81.37;101944.81;5035556;28;20466;-65
2022/09/19 10:41:28;;;;;;;19.75;2.53;;;;;;;18.19;81.70;101947.50;5081703;28;20020;-63
2022/09/19 10:44:24;;;;;;;15.27;2.40;;;;;;;17.90;80.74;101946.00;5087009;28;20024;-65
2022/09/19 10:47:03;;;;;;;15.32;2.42;;;;;;;17.17;82.95;101946.47;5083525;28;20398;-63
2022/09/19 10:49:36;;;;;;;14.35;2.35;;;;;;;16.81;85.90;101942.16;5083610;28;20017;-63
2022/09/19 10:52:03;;;;;;;16.65;2.33;;;;;;;17.25;85.98;101939.28;5087879;28;20056;-63
2022/09/19 10:54:41;;;;;;;16.45;2.47;;;;;;;17.92;83.85;101934.34;5082280;28;20441;-63
2022/09/19 10:57:44;;;;;;;13.75;2.38;;;;;;;18.63;80.28;101933.63;5081626;28;20467;-63
2022/09/19 11:00:27;;;;;;;17.27;2.53;;;;;;;20.41;68.34;101930.03;5082601;28;20124;-64
2022/09/19 11:02:55;;;;;;;11.50;2.03;;;;;;;21.51;62.90;101945.59;5081567;28;20027;-63
2022/09/19 11:05:27;;;;;;;14.15;2.20;;;;;;;22.05;61.36;101946.94;5085996;28;20062;-65
2022/09/19 11:07:59;;;;;;;13.65;2.20;;;;;;;21.83;54.27;101938.53;5083627;28;20029;-65
2022/09/19 11:10:37;;;;;;;10.65;2.10;;;;;;;21.04;56.48;101945.75;5084103;28;20479;-64
2022/09/19 11:13:22;;;;;;;17.85;2.63;;;;;;;20.23;60.91;101934.84;5082093;28;20037;-63
2022/09/19 11:16:12;;;;;;;12.73;2.10;;;;;;;20.47;63.24;101944.19;5081581;28;20028;-65
2022/09/19 11:18:53;;;;;;;13.50;2.30;;;;;;;20.96;60.25;101941.47;5082863;28;20028;-63
2022/09/19 11:21:38;;;;;;;17.42;2.60;;;;;;;21.17;58.96;101932.94;5084928;28;20035;-63
2022/09/19 11:24:27;;;;;;;13.70;2.25;;;;;;;21.32;57.99;101937.06;5082391;28;20039;-63
2022/09/19 11:27:19;;;;;;;13.63;2.00;;;;;;;22.61;59.83;101938.22;5086984;28;20043;-66
2022/09/19 11:30:02;;;;;;;13.85;2.47;;;;;;;23.49;53.30;101940.13;5007390;28;20052;-64
2022/09/19 11:32:45;;;;;;;10.82;1.88;;;;;;;22.97;49.03;101930.00;5008212;28;20116;-64
2022/09/19 11:35:25;;;;;;;13.27;2.30;;;;;;;21.73;54.26;101931.63;4991446;28;20053;-64
2022/09/19 11:38:09;;;;;;;13.18;2.20;;;;;;;20.40;57.71;101939.84;5005928;28;20033;-65
2022/09/19 11:40:59;;;;;;;15.07;2.42;;;;;;;18.81;61.01;101945.91;5007942;28;20084;-65
2022/09/19 11:43:48;;;;;;;16.60;2.28;;;;;;;18.46;63.35;101940.97;5008443;28;20034;-63
2022/09/19 11:46:57;;;;;;;12.80;2.42;;;;;;;18.27;64.30;101934.94;5006318;28;20112;-65
2022/09/19 11:49:37;;;;;;;15.55;2.30;;;;;;;18.34;63.11;101928.59;5012044;28;20041;-63
2022/09/19 11:52:38;;;;;;;10.82;2.13;;;;;;;20.67;59.39;101935.78;5011862;28;20032;-65